sensor_id;sensor_type;location;lat;lon;timestamp;temperature;humidity
20102;DHT22;10210;52.284;9.892;2023-03-01T00:02:20;4.00;99.90
20102;DHT22;10210;52.284;9.892;2023-03-01T00:04:46;3.90;99.90
20102;DHT22;10210;52.284;9.892;2023-03-01T00:07:12;3.90;99.90
20102;DHT22;10210;52.284;9.892;2023-03-01T00:09:38;3.90;99.90
20102;DHT22;10210;52.284;9.892;2023-03-01T00:12:05;3.90;99.90
20102;DHT22;10210;52.284;9.892;2023-03-01T00:14:32;3.80;99.90
20102;DHT22;10210;52.284;9.892;2023-03-01T00:16:57;3.80;99.90
20102;DHT22;10210;52.284;9.892;2023-03-01T00:19:23;3.80;99.90
20102;DHT22;10210;52.284;9.892;2023-03-01T00:21:49;3.80;99.90
20102;DHT22;10210;52.284;9.892;2023-03-01T00:24:15;3.70;99.90
20102;DHT22;10210;52.284;9.892;2023-03-01T00:26:42;3.70;99.90
20102;DHT22;10210;52.284;9.892;2023-03-01T00:29:07;3.60;99.90
20102;DHT22;10210;52.284;9.892;2023-03-01T00:31:33;3.60;99.90
20102;DHT22;10210;52.284;9.892;2023-03-01T00:34:02;3.60;99.90
20102;DHT22;10210;52.284;9.892;2023-03-01T00:36:31;3.50;99.90
20102;DHT22;10210;52.284;9.892;2023-03-01T00:38:58;3.50;99.90
20102;DHT22;10210;52.284;9.892;2023-03-01T00:41:24;3.50;99.90
20102;DHT22;10210;52.284;9.892;2023-03-01T00:43:53;3.50;99.90
20102;DHT22;10210;52.284;9.892;2023-03-01T00:46:23;3.40;99.90
20102;DHT22;10210;52.284;9.892;2023-03-01T00:48:51;3.40;99.90
20102;DHT22;10210;52.284;9.892;2023-03-01T00:51:19;3.40;99.90
20102;DHT22;10210;52.284;9.892;2023-03-01T00:53:50;3.40;99.90
20102;DHT22;10210;52.284;9.892;2023-03-01T00:56:17;3.30;99.90
20102;DHT22;10210;52.284;9.892;2023-03-01T00:58:43;3.30;99.90
20102;DHT22;10210;52.284;9.892;2023-03-01T01:01:11;3.30;99.90
20102;DHT22;10210;52.284;9.892;2023-03-01T01:03:49;3.30;99.90
20102;DHT22;10210;52.284;9.892;2023-03-01T01:06:40;3.30;99.90
20102;DHT22;10210;52.284;9.892;2023-03-01T01:09:09;3.20;99.90
20102;DHT22;10210;52.284;9.892;2023-03-01T01:11:47;3.20;99.90
20102;DHT22;10210;52.284;9.892;2023-03-01T01:14:16;3.20;99.90
20102;DHT22;10210;52.284;9.892;2023-03-01T01:16:43;3.10;99.90
20102;DHT22;10210;52.284;9.892;2023-03-01T01:19:11;3.10;99.90
20102;DHT22;10210;52.284;9.892;2023-03-01T01:21:37;3.00;99.90
20102;DHT22;10210;52.284;9.892;2023-03-01T01:24:04;3.00;99.90
20102;DHT22;10210;52.284;9.892;2023-03-01T01:26:32;3.00;99.90
20102;DHT22;10210;52.284;9.892;2023-03-01T01:29:02;3.00;99.90
20102;DHT22;10210;52.284;9.892;2023-03-01T01:31:30;3.00;99.90
20102;DHT22;10210;52.284;9.892;2023-03-01T01:33:57;2.90;99.90
20102;DHT22;10210;52.284;9.892;2023-03-01T01:36:24;2.90;99.90
20102;DHT22;10210;52.284;9.892;2023-03-01T01:38:50;2.90;99.90
20102;DHT22;10210;52.284;9.892;2023-03-01T01:41:17;2.90;99.90
20102;DHT22;10210;52.284;9.892;2023-03-01T01:43:46;2.90;99.90
20102;DHT22;10210;52.284;9.892;2023-03-01T01:46:25;2.90;99.90
20102;DHT22;10210;52.284;9.892;2023-03-01T01:55:05;2.80;99.90
20102;DHT22;10210;52.284;9.892;2023-03-01T01:57:48;2.80;99.90
20102;DHT22;10210;52.284;9.892;2023-03-01T02:00:23;2.80;99.90
20102;DHT22;10210;52.284;9.892;2023-03-01T02:03:03;2.70;99.90
20102;DHT22;10210;52.284;9.892;2023-03-01T02:05:51;2.70;99.90
20102;DHT22;10210;52.284;9.892;2023-03-01T02:08:31;2.70;99.90
20102;DHT22;10210;52.284;9.892;2023-03-01T02:11:01;2.70;99.90
20102;DHT22;10210;52.284;9.892;2023-03-01T02:13:30;2.60;99.90
20102;DHT22;10210;52.284;9.892;2023-03-01T02:15:57;2.60;99.90
20102;DHT22;10210;52.284;9.892;2023-03-01T02:18:24;2.60;99.90
20102;DHT22;10210;52.284;9.892;2023-03-01T02:21:05;2.60;99.90
20102;DHT22;10210;52.284;9.892;2023-03-01T02:23:40;2.60;99.90
20102;DHT22;10210;52.284;9.892;2023-03-01T02:26:11;2.60;99.90
20102;DHT22;10210;52.284;9.892;2023-03-01T02:28:45;2.50;99.90
20102;DHT22;10210;52.284;9.892;2023-03-01T02:31:14;2.50;99.90
20102;DHT22;10210;52.284;9.892;2023-03-01T02:34:02;2.50;99.90
20102;DHT22;10210;52.284;9.892;2023-03-01T02:36:34;2.50;99.90
20102;DHT22;10210;52.284;9.892;2023-03-01T02:39:05;2.50;99.90
20102;DHT22;10210;52.284;9.892;2023-03-01T02:41:36;2.50;99.90
20102;DHT22;10210;52.284;9.892;2023-03-01T02:44:04;2.50;99.90
20102;DHT22;10210;52.284;9.892;2023-03-01T02:46:30;2.50;99.90
20102;DHT22;10210;52.284;9.892;2023-03-01T02:48:58;2.50;99.90
20102;DHT22;10210;52.284;9.892;2023-03-01T02:51:31;2.40;99.90
20102;DHT22;10210;52.284;9.892;2023-03-01T02:54:28;2.40;99.90
20102;DHT22;10210;52.284;9.892;2023-03-01T02:57:01;2.40;99.90
20102;DHT22;10210;52.284;9.892;2023-03-01T02:59:31;2.40;99.90
20102;DHT22;10210;52.284;9.892;2023-03-01T03:02:05;2.30;99.90
20102;DHT22;10210;52.284;9.892;2023-03-01T03:04:31;2.30;99.90
20102;DHT22;10210;52.284;9.892;2023-03-01T03:06:57;2.30;99.90
20102;DHT22;10210;52.284;9.892;2023-03-01T03:09:22;2.20;99.90
20102;DHT22;10210;52.284;9.892;2023-03-01T03:11:48;2.20;99.90
20102;DHT22;10210;52.284;9.892;2023-03-01T03:14:16;2.20;99.90
20102;DHT22;10210;52.284;9.892;2023-03-01T03:16:48;2.10;99.90
20102;DHT22;10210;52.284;9.892;2023-03-01T03:19:16;2.10;99.90
20102;DHT22;10210;52.284;9.892;2023-03-01T03:21:43;2.10;99.90
20102;DHT22;10210;52.284;9.892;2023-03-01T03:24:09;2.10;99.90
20102;DHT22;10210;52.284;9.892;2023-03-01T03:26:35;2.00;99.90
20102;DHT22;10210;52.284;9.892;2023-03-01T03:29:00;2.10;99.90
20102;DHT22;10210;52.284;9.892;2023-03-01T03:31:26;2.00;99.90
20102;DHT22;10210;52.284;9.892;2023-03-01T03:33:53;2.10;99.90
20102;DHT22;10210;52.284;9.892;2023-03-01T03:36:21;2.00;99.90
20102;DHT22;10210;52.284;9.892;2023-03-01T03:38:48;2.00;99.90
20102;DHT22;10210;52.284;9.892;2023-03-01T03:41:15;2.00;99.90
20102;DHT22;10210;52.284;9.892;2023-03-01T03:43:42;2.00;99.90
20102;DHT22;10210;52.284;9.892;2023-03-01T03:46:10;2.00;99.90
20102;DHT22;10210;52.284;9.892;2023-03-01T03:48:41;2.00;99.90
20102;DHT22;10210;52.284;9.892;2023-03-01T03:51:14;1.90;99.90
20102;DHT22;10210;52.284;9.892;2023-03-01T03:53:41;1.80;99.90
20102;DHT22;10210;52.284;9.892;2023-03-01T03:56:07;1.80;99.90
20102;DHT22;10210;52.284;9.892;2023-03-01T03:58:33;1.80;99.90
20102;DHT22;10210;52.284;9.892;2023-03-01T04:00:59;1.80;99.90
20102;DHT22;10210;52.284;9.892;2023-03-01T04:03:27;1.70;99.90
20102;DHT22;10210;52.284;9.892;2023-03-01T04:05:56;1.70;99.90
20102;DHT22;10210;52.284;9.892;2023-03-01T04:08:23;1.70;99.90
20102;DHT22;10210;52.284;9.892;2023-03-01T04:10:52;1.70;99.90
20102;DHT22;10210;52.284;9.892;2023-03-01T04:13:22;1.70;99.90
20102;DHT22;10210;52.284;9.892;2023-03-01T04:15:51;1.60;99.90
20102;DHT22;10210;52.284;9.892;2023-03-01T04:18:20;1.60;99.90
20102;DHT22;10210;52.284;9.892;2023-03-01T04:20:49;1.60;99.90
20102;DHT22;10210;52.284;9.892;2023-03-01T04:23:19;1.60;99.90
20102;DHT22;10210;52.284;9.892;2023-03-01T04:25:49;1.60;99.90
20102;DHT22;10210;52.284;9.892;2023-03-01T04:28:23;1.60;99.90
20102;DHT22;10210;52.284;9.892;2023-03-01T04:30:51;1.60;99.90
20102;DHT22;10210;52.284;9.892;2023-03-01T04:33:18;1.50;99.90
20102;DHT22;10210;52.284;9.892;2023-03-01T04:35:44;1.50;99.90
20102;DHT22;10210;52.284;9.892;2023-03-01T04:38:10;1.50;99.90
20102;DHT22;10210;52.284;9.892;2023-03-01T04:40:36;1.40;99.90
20102;DHT22;10210;52.284;9.892;2023-03-01T04:43:03;1.40;99.90
20102;DHT22;10210;52.284;9.892;2023-03-01T04:45:31;1.40;99.90
20102;DHT22;10210;52.284;9.892;2023-03-01T04:47:57;1.40;99.90
20102;DHT22;10210;52.284;9.892;2023-03-01T04:50:24;1.40;99.90
20102;DHT22;10210;52.284;9.892;2023-03-01T04:52:51;1.40;99.90
20102;DHT22;10210;52.284;9.892;2023-03-01T04:55:18;1.40;99.90
20102;DHT22;10210;52.284;9.892;2023-03-01T04:57:43;1.40;99.90
20102;DHT22;10210;52.284;9.892;2023-03-01T05:00:13;1.40;99.90
20102;DHT22;10210;52.284;9.892;2023-03-01T05:02:53;1.40;99.90
20102;DHT22;10210;52.284;9.892;2023-03-01T05:05:33;1.40;99.90
20102;DHT22;10210;52.284;9.892;2023-03-01T05:08:03;1.40;99.90
20102;DHT22;10210;52.284;9.892;2023-03-01T05:10:32;1.40;99.90
20102;DHT22;10210;52.284;9.892;2023-03-01T05:13:01;1.40;99.90
20102;DHT22;10210;52.284;9.892;2023-03-01T05:15:30;1.40;99.90
20102;DHT22;10210;52.284;9.892;2023-03-01T05:17:59;1.40;99.90
20102;DHT22;10210;52.284;9.892;2023-03-01T05:20:26;1.40;99.90
20102;DHT22;10210;52.284;9.892;2023-03-01T05:22:59;1.40;99.90
20102;DHT22;10210;52.284;9.892;2023-03-01T05:25:25;1.30;99.90
20102;DHT22;10210;52.284;9.892;2023-03-01T05:27:52;1.30;99.90
20102;DHT22;10210;52.284;9.892;2023-03-01T05:30:19;1.30;99.90
20102;DHT22;10210;52.284;9.892;2023-03-01T05:32:48;1.20;99.90
20102;DHT22;10210;52.284;9.892;2023-03-01T05:35:16;1.20;99.90
20102;DHT22;10210;52.284;9.892;2023-03-01T05:37:44;1.20;99.90
20102;DHT22;10210;52.284;9.892;2023-03-01T05:40:15;1.20;99.90
20102;DHT22;10210;52.284;9.892;2023-03-01T05:42:55;1.10;99.90
20102;DHT22;10210;52.284;9.892;2023-03-01T05:45:23;1.10;99.90
20102;DHT22;10210;52.284;9.892;2023-03-01T05:47:51;1.10;99.90
20102;DHT22;10210;52.284;9.892;2023-03-01T05:50:23;1.10;99.90
20102;DHT22;10210;52.284;9.892;2023-03-01T05:53:05;1.10;99.90
20102;DHT22;10210;52.284;9.892;2023-03-01T05:55:43;1.00;99.90
20102;DHT22;10210;52.284;9.892;2023-03-01T05:58:12;1.00;99.90
20102;DHT22;10210;52.284;9.892;2023-03-01T06:00:40;1.00;99.90
20102;DHT22;10210;52.284;9.892;2023-03-01T06:03:06;1.00;99.90
20102;DHT22;10210;52.284;9.892;2023-03-01T06:05:34;1.00;99.90
20102;DHT22;10210;52.284;9.892;2023-03-01T06:08:01;1.00;99.90
20102;DHT22;10210;52.284;9.892;2023-03-01T06:10:27;1.00;99.90
20102;DHT22;10210;52.284;9.892;2023-03-01T06:12:55;1.00;99.90
20102;DHT22;10210;52.284;9.892;2023-03-01T06:15:21;1.00;99.90
20102;DHT22;10210;52.284;9.892;2023-03-01T06:17:48;0.90;99.90
20102;DHT22;10210;52.284;9.892;2023-03-01T06:20:16;0.90;99.90
20102;DHT22;10210;52.284;9.892;2023-03-01T06:22:47;0.90;99.90
20102;DHT22;10210;52.284;9.892;2023-03-01T06:25:16;0.90;99.90
20102;DHT22;10210;52.284;9.892;2023-03-01T06:27:44;0.90;99.90
20102;DHT22;10210;52.284;9.892;2023-03-01T06:30:13;0.90;99.90
20102;DHT22;10210;52.284;9.892;2023-03-01T06:32:41;1.00;99.90
20102;DHT22;10210;52.284;9.892;2023-03-01T06:35:14;1.10;99.90
20102;DHT22;10210;52.284;9.892;2023-03-01T06:37:45;1.20;99.90
20102;DHT22;10210;52.284;9.892;2023-03-01T06:40:11;1.40;99.90
20102;DHT22;10210;52.284;9.892;2023-03-01T06:42:40;1.60;99.90
20102;DHT22;10210;52.284;9.892;2023-03-01T06:45:10;1.80;99.90
20102;DHT22;10210;52.284;9.892;2023-03-01T06:47:38;2.00;99.90
20102;DHT22;10210;52.284;9.892;2023-03-01T06:50:04;2.20;99.90
20102;DHT22;10210;52.284;9.892;2023-03-01T06:52:30;2.30;99.90
20102;DHT22;10210;52.284;9.892;2023-03-01T06:54:56;2.30;99.90
20102;DHT22;10210;52.284;9.892;2023-03-01T06:57:21;2.40;99.90
20102;DHT22;10210;52.284;9.892;2023-03-01T06:59:47;2.30;99.90
20102;DHT22;10210;52.284;9.892;2023-03-01T07:02:14;2.40;99.90
20102;DHT22;10210;52.284;9.892;2023-03-01T07:04:41;2.30;99.90
20102;DHT22;10210;52.284;9.892;2023-03-01T07:07:07;2.20;99.90
20102;DHT22;10210;52.284;9.892;2023-03-01T07:09:33;2.10;99.90
20102;DHT22;10210;52.284;9.892;2023-03-01T07:11:59;2.10;99.90
20102;DHT22;10210;52.284;9.892;2023-03-01T07:14:25;2.10;99.90
20102;DHT22;10210;52.284;9.892;2023-03-01T07:16:51;2.00;99.90
20102;DHT22;10210;52.284;9.892;2023-03-01T07:19:18;2.00;99.90
20102;DHT22;10210;52.284;9.892;2023-03-01T07:21:44;2.00;99.90
20102;DHT22;10210;52.284;9.892;2023-03-01T07:24:10;1.90;99.90
20102;DHT22;10210;52.284;9.892;2023-03-01T07:26:36;1.90;99.90
20102;DHT22;10210;52.284;9.892;2023-03-01T07:29:06;1.90;99.90
20102;DHT22;10210;52.284;9.892;2023-03-01T07:31:34;1.90;99.90
20102;DHT22;10210;52.284;9.892;2023-03-01T07:34:01;1.80;99.90
20102;DHT22;10210;52.284;9.892;2023-03-01T07:36:26;1.80;99.90
20102;DHT22;10210;52.284;9.892;2023-03-01T07:38:52;1.80;99.90
20102;DHT22;10210;52.284;9.892;2023-03-01T07:41:18;1.80;99.90
20102;DHT22;10210;52.284;9.892;2023-03-01T07:43:44;1.80;99.90
20102;DHT22;10210;52.284;9.892;2023-03-01T07:46:09;1.80;99.90
20102;DHT22;10210;52.284;9.892;2023-03-01T07:48:36;1.70;99.90
20102;DHT22;10210;52.284;9.892;2023-03-01T07:51:03;1.70;99.90
20102;DHT22;10210;52.284;9.892;2023-03-01T07:53:30;1.70;99.90
20102;DHT22;10210;52.284;9.892;2023-03-01T07:56:09;1.70;99.90
20102;DHT22;10210;52.284;9.892;2023-03-01T07:58:38;1.70;99.90
20102;DHT22;10210;52.284;9.892;2023-03-01T08:01:07;1.80;99.90
20102;DHT22;10210;52.284;9.892;2023-03-01T08:03:35;1.80;99.90
20102;DHT22;10210;52.284;9.892;2023-03-01T08:06:04;1.80;99.90
20102;DHT22;10210;52.284;9.892;2023-03-01T08:08:31;1.80;99.90
20102;DHT22;10210;52.284;9.892;2023-03-01T08:10:58;1.80;99.90
20102;DHT22;10210;52.284;9.892;2023-03-01T08:13:25;1.90;99.90
20102;DHT22;10210;52.284;9.892;2023-03-01T08:15:51;1.90;99.90
20102;DHT22;10210;52.284;9.892;2023-03-01T08:18:20;1.90;99.90
20102;DHT22;10210;52.284;9.892;2023-03-01T08:20:49;2.00;99.90
20102;DHT22;10210;52.284;9.892;2023-03-01T08:23:15;2.10;99.90
20102;DHT22;10210;52.284;9.892;2023-03-01T08:25:41;2.30;99.90
20102;DHT22;10210;52.284;9.892;2023-03-01T08:28:07;2.50;99.90
20102;DHT22;10210;52.284;9.892;2023-03-01T08:30:33;2.70;99.90
20102;DHT22;10210;52.284;9.892;2023-03-01T08:33:04;2.90;99.90
20102;DHT22;10210;52.284;9.892;2023-03-01T08:35:30;3.10;99.90
20102;DHT22;10210;52.284;9.892;2023-03-01T08:37:55;3.20;99.90
20102;DHT22;10210;52.284;9.892;2023-03-01T08:40:21;3.20;99.90
20102;DHT22;10210;52.284;9.892;2023-03-01T08:42:47;3.30;99.90
20102;DHT22;10210;52.284;9.892;2023-03-01T08:45:21;3.30;99.90
20102;DHT22;10210;52.284;9.892;2023-03-01T08:47:47;3.40;99.90
20102;DHT22;10210;52.284;9.892;2023-03-01T08:50:12;3.40;99.90
20102;DHT22;10210;52.284;9.892;2023-03-01T08:52:38;3.60;99.90
20102;DHT22;10210;52.284;9.892;2023-03-01T08:55:04;3.90;99.90
20102;DHT22;10210;52.284;9.892;2023-03-01T08:57:31;4.30;99.90
20102;DHT22;10210;52.284;9.892;2023-03-01T08:59:56;4.80;99.90
20102;DHT22;10210;52.284;9.892;2023-03-01T09:02:22;5.20;99.90
20102;DHT22;10210;52.284;9.892;2023-03-01T09:04:48;5.70;99.90
20102;DHT22;10210;52.284;9.892;2023-03-01T09:07:13;6.20;99.90
20102;DHT22;10210;52.284;9.892;2023-03-01T09:09:39;6.70;99.90
20102;DHT22;10210;52.284;9.892;2023-03-01T09:12:05;7.20;99.90
20102;DHT22;10210;52.284;9.892;2023-03-01T09:14:31;7.60;99.90
20102;DHT22;10210;52.284;9.892;2023-03-01T09:16:56;8.00;99.90
20102;DHT22;10210;52.284;9.892;2023-03-01T09:19:22;8.40;99.90
20102;DHT22;10210;52.284;9.892;2023-03-01T09:21:48;8.80;99.90
20102;DHT22;10210;52.284;9.892;2023-03-01T09:24:22;9.10;99.90
20102;DHT22;10210;52.284;9.892;2023-03-01T09:26:51;9.40;99.90
20102;DHT22;10210;52.284;9.892;2023-03-01T09:29:18;9.70;99.90
20102;DHT22;10210;52.284;9.892;2023-03-01T09:31:45;9.90;99.90
20102;DHT22;10210;52.284;9.892;2023-03-01T09:34:10;10.10;99.90
20102;DHT22;10210;52.284;9.892;2023-03-01T09:36:36;10.30;99.90
20102;DHT22;10210;52.284;9.892;2023-03-01T09:39:04;10.40;99.90
20102;DHT22;10210;52.284;9.892;2023-03-01T09:42:03;10.50;99.90
20102;DHT22;10210;52.284;9.892;2023-03-01T09:47:31;10.70;99.90
20102;DHT22;10210;52.284;9.892;2023-03-01T09:50:18;10.70;99.90
20102;DHT22;10210;52.284;9.892;2023-03-01T09:52:50;10.70;99.90
20102;DHT22;10210;52.284;9.892;2023-03-01T09:58:31;10.70;99.90
20102;DHT22;10210;52.284;9.892;2023-03-01T10:10:28;10.80;99.90
20102;DHT22;10210;52.284;9.892;2023-03-01T10:13:15;10.80;99.90
20102;DHT22;10210;52.284;9.892;2023-03-01T10:15:53;10.70;99.90
20102;DHT22;10210;52.284;9.892;2023-03-01T10:18:26;10.70;99.90
20102;DHT22;10210;52.284;9.892;2023-03-01T10:21:19;10.60;99.90
20102;DHT22;10210;52.284;9.892;2023-03-01T10:23:46;10.50;99.90
20102;DHT22;10210;52.284;9.892;2023-03-01T10:29:13;10.40;99.90
20102;DHT22;10210;52.284;9.892;2023-03-01T10:31:50;10.30;99.90
20102;DHT22;10210;52.284;9.892;2023-03-01T10:34:36;10.20;99.90
20102;DHT22;10210;52.284;9.892;2023-03-01T10:37:11;10.10;99.90
20102;DHT22;10210;52.284;9.892;2023-03-01T10:40:01;10.00;99.90
20102;DHT22;10210;52.284;9.892;2023-03-01T10:42:33;9.90;99.90
20102;DHT22;10210;52.284;9.892;2023-03-01T10:48:20;9.60;99.90
20102;DHT22;10210;52.284;9.892;2023-03-01T10:51:14;9.50;99.90
20102;DHT22;10210;52.284;9.892;2023-03-01T10:53:48;9.40;99.90
20102;DHT22;10210;52.284;9.892;2023-03-01T10:56:15;9.30;99.90
20102;DHT22;10210;52.284;9.892;2023-03-01T10:58:57;9.20;99.90
20102;DHT22;10210;52.284;9.892;2023-03-01T11:01:33;9.00;99.90
20102;DHT22;10210;52.284;9.892;2023-03-01T11:06:36;8.80;99.90
20102;DHT22;10210;52.284;9.892;2023-03-01T11:09:23;8.70;99.90
20102;DHT22;10210;52.284;9.892;2023-03-01T11:11:54;8.70;99.90
20102;DHT22;10210;52.284;9.892;2023-03-01T11:17:05;8.60;99.90
20102;DHT22;10210;52.284;9.892;2023-03-01T11:19:43;8.70;99.90
20102;DHT22;10210;52.284;9.892;2023-03-01T11:22:25;8.60;99.90
20102;DHT22;10210;52.284;9.892;2023-03-01T11:24:53;8.70;99.90
20102;DHT22;10210;52.284;9.892;2023-03-01T11:27:38;8.70;99.90
20102;DHT22;10210;52.284;9.892;2023-03-01T11:30:26;8.70;99.90
20102;DHT22;10210;52.284;9.892;2023-03-01T11:35:36;8.70;99.90
20102;DHT22;10210;52.284;9.892;2023-03-01T11:41:12;8.80;99.90
20102;DHT22;10210;52.284;9.892;2023-03-01T11:44:10;8.90;99.90
20102;DHT22;10210;52.284;9.892;2023-03-01T11:46:57;8.90;99.90
20102;DHT22;10210;52.284;9.892;2023-03-01T11:52:43;9.00;99.90
20102;DHT22;10210;52.284;9.892;2023-03-01T11:59:02;9.10;99.90
20102;DHT22;10210;52.284;9.892;2023-03-01T12:07:00;9.30;99.90
20102;DHT22;10210;52.284;9.892;2023-03-01T12:10:08;9.30;99.90
20102;DHT22;10210;52.284;9.892;2023-03-01T12:16:09;9.40;99.90
20102;DHT22;10210;52.284;9.892;2023-03-01T12:22:08;9.50;99.90
20102;DHT22;10210;52.284;9.892;2023-03-01T12:25:01;9.60;99.90
20102;DHT22;10210;52.284;9.892;2023-03-01T12:28:04;9.60;99.90
20102;DHT22;10210;52.284;9.892;2023-03-01T12:33:53;9.70;99.90
20102;DHT22;10210;52.284;9.892;2023-03-01T12:39:50;9.80;99.90
20102;DHT22;10210;52.284;9.892;2023-03-01T12:42:54;9.90;99.90
20102;DHT22;10210;52.284;9.892;2023-03-01T12:51:34;10.00;99.90
20102;DHT22;10210;52.284;9.892;2023-03-01T12:54:19;10.00;99.90
20102;DHT22;10210;52.284;9.892;2023-03-01T12:56:49;10.00;99.90
20102;DHT22;10210;52.284;9.892;2023-03-01T12:59:40;10.10;99.90
20102;DHT22;10210;52.284;9.892;2023-03-01T13:02:27;10.10;99.90
20102;DHT22;10210;52.284;9.892;2023-03-01T13:08:19;10.20;99.90
20102;DHT22;10210;52.284;9.892;2023-03-01T13:10:58;10.30;99.90
20102;DHT22;10210;52.284;9.892;2023-03-01T13:13:28;10.30;99.90
20102;DHT22;10210;52.284;9.892;2023-03-01T13:15:55;10.30;99.90
20102;DHT22;10210;52.284;9.892;2023-03-01T13:20:50;10.40;99.90
20102;DHT22;10210;52.284;9.892;2023-03-01T13:26:12;10.50;99.90
20102;DHT22;10210;52.284;9.892;2023-03-01T13:31:56;10.50;99.90
20102;DHT22;10210;52.284;9.892;2023-03-01T13:34:00;10.60;99.90
20102;DHT22;10210;52.284;9.892;2023-03-01T13:39:38;10.70;99.90
20102;DHT22;10210;52.284;9.892;2023-03-01T13:42:35;10.70;99.90
20102;DHT22;10210;52.284;9.892;2023-03-01T13:45:51;10.80;99.90
20102;DHT22;10210;52.284;9.892;2023-03-01T13:48:18;10.80;99.90
20102;DHT22;10210;52.284;9.892;2023-03-01T13:50:54;10.80;99.90
20102;DHT22;10210;52.284;9.892;2023-03-01T13:54:02;10.80;99.90
20102;DHT22;10210;52.284;9.892;2023-03-01T13:56:25;10.90;99.90
20102;DHT22;10210;52.284;9.892;2023-03-01T13:58:58;10.90;99.90
20102;DHT22;10210;52.284;9.892;2023-03-01T14:01:30;10.90;99.90
20102;DHT22;10210;52.284;9.892;2023-03-01T14:03:57;11.00;99.90
20102;DHT22;10210;52.284;9.892;2023-03-01T14:06:29;11.00;99.90
20102;DHT22;10210;52.284;9.892;2023-03-01T14:09:10;11.00;99.90
20102;DHT22;10210;52.284;9.892;2023-03-01T14:20:30;11.20;99.90
20102;DHT22;10210;52.284;9.892;2023-03-01T14:23:15;11.20;99.90
20102;DHT22;10210;52.284;9.892;2023-03-01T14:28:26;11.20;99.90
20102;DHT22;10210;52.284;9.892;2023-03-01T14:30:55;11.20;99.90
20102;DHT22;10210;52.284;9.892;2023-03-01T14:33:29;11.30;99.90
20102;DHT22;10210;52.284;9.892;2023-03-01T14:36:06;11.30;99.90
20102;DHT22;10210;52.284;9.892;2023-03-01T14:38:45;11.30;99.90
20102;DHT22;10210;52.284;9.892;2023-03-01T14:41:20;11.30;99.90
20102;DHT22;10210;52.284;9.892;2023-03-01T14:43:54;11.30;99.90
20102;DHT22;10210;52.284;9.892;2023-03-01T14:49:05;11.30;99.90
20102;DHT22;10210;52.284;9.892;2023-03-01T14:51:38;11.30;99.90
20102;DHT22;10210;52.284;9.892;2023-03-01T14:56:47;11.30;99.90
20102;DHT22;10210;52.284;9.892;2023-03-01T14:59:13;11.30;99.90
20102;DHT22;10210;52.284;9.892;2023-03-01T15:01:41;11.30;99.90
20102;DHT22;10210;52.284;9.892;2023-03-01T15:04:10;11.30;99.90
20102;DHT22;10210;52.284;9.892;2023-03-01T15:06:38;11.30;99.90
20102;DHT22;10210;52.284;9.892;2023-03-01T15:09:04;11.30;99.90
20102;DHT22;10210;52.284;9.892;2023-03-01T15:11:32;11.30;99.90
20102;DHT22;10210;52.284;9.892;2023-03-01T15:13:59;11.30;99.90
20102;DHT22;10210;52.284;9.892;2023-03-01T15:16:27;11.30;99.90
20102;DHT22;10210;52.284;9.892;2023-03-01T15:19:06;11.20;99.90
20102;DHT22;10210;52.284;9.892;2023-03-01T15:21:34;11.20;99.90
20102;DHT22;10210;52.284;9.892;2023-03-01T15:24:13;11.20;99.90
20102;DHT22;10210;52.284;9.892;2023-03-01T15:26:56;11.20;99.90
20102;DHT22;10210;52.284;9.892;2023-03-01T15:29:28;11.10;99.90
20102;DHT22;10210;52.284;9.892;2023-03-01T15:32:02;11.10;99.90
20102;DHT22;10210;52.284;9.892;2023-03-01T15:34:30;11.10;99.90
20102;DHT22;10210;52.284;9.892;2023-03-01T15:36:59;11.10;99.90
20102;DHT22;10210;52.284;9.892;2023-03-01T15:39:53;11.10;99.90
20102;DHT22;10210;52.284;9.892;2023-03-01T15:42:36;11.00;99.90
20102;DHT22;10210;52.284;9.892;2023-03-01T15:47:47;11.00;99.90
20102;DHT22;10210;52.284;9.892;2023-03-01T15:50:25;11.00;99.90
20102;DHT22;10210;52.284;9.892;2023-03-01T15:52:56;11.00;99.90
20102;DHT22;10210;52.284;9.892;2023-03-01T15:55:27;11.00;99.90
20102;DHT22;10210;52.284;9.892;2023-03-01T15:58:01;11.00;99.90
20102;DHT22;10210;52.284;9.892;2023-03-01T16:00:30;10.90;99.90
20102;DHT22;10210;52.284;9.892;2023-03-01T16:02:56;10.90;99.90
20102;DHT22;10210;52.284;9.892;2023-03-01T16:05:30;10.90;99.90
20102;DHT22;10210;52.284;9.892;2023-03-01T16:07:58;10.90;99.90
20102;DHT22;10210;52.284;9.892;2023-03-01T16:10:24;10.90;99.90
20102;DHT22;10210;52.284;9.892;2023-03-01T16:12:51;10.80;99.90
20102;DHT22;10210;52.284;9.892;2023-03-01T16:15:19;10.80;99.90
20102;DHT22;10210;52.284;9.892;2023-03-01T16:17:46;10.80;99.90
20102;DHT22;10210;52.284;9.892;2023-03-01T16:20:12;10.80;99.90
20102;DHT22;10210;52.284;9.892;2023-03-01T16:22:41;10.70;99.90
20102;DHT22;10210;52.284;9.892;2023-03-01T16:25:12;10.70;99.90
20102;DHT22;10210;52.284;9.892;2023-03-01T16:27:45;10.60;99.90
20102;DHT22;10210;52.284;9.892;2023-03-01T16:30:16;10.50;99.90
20102;DHT22;10210;52.284;9.892;2023-03-01T16:32:48;10.40;99.90
20102;DHT22;10210;52.284;9.892;2023-03-01T16:35:17;10.30;99.90
20102;DHT22;10210;52.284;9.892;2023-03-01T16:37:44;10.30;99.90
20102;DHT22;10210;52.284;9.892;2023-03-01T16:40:25;10.20;99.90
20102;DHT22;10210;52.284;9.892;2023-03-01T16:42:54;10.10;99.90
20102;DHT22;10210;52.284;9.892;2023-03-01T16:45:24;10.00;99.90
20102;DHT22;10210;52.284;9.892;2023-03-01T16:47:52;9.90;99.90
20102;DHT22;10210;52.284;9.892;2023-03-01T16:50:18;9.80;99.90
20102;DHT22;10210;52.284;9.892;2023-03-01T16:52:45;9.70;99.90
20102;DHT22;10210;52.284;9.892;2023-03-01T16:55:11;9.70;99.90
20102;DHT22;10210;52.284;9.892;2023-03-01T16:57:37;9.60;99.90
20102;DHT22;10210;52.284;9.892;2023-03-01T17:00:08;9.60;99.90
20102;DHT22;10210;52.284;9.892;2023-03-01T17:02:35;9.50;99.90
20102;DHT22;10210;52.284;9.892;2023-03-01T17:05:01;9.50;99.90
20102;DHT22;10210;52.284;9.892;2023-03-01T17:07:28;9.40;99.90
20102;DHT22;10210;52.284;9.892;2023-03-01T17:09:58;9.40;99.90
20102;DHT22;10210;52.284;9.892;2023-03-01T17:12:25;9.30;99.90
20102;DHT22;10210;52.284;9.892;2023-03-01T17:14:50;9.20;99.90
20102;DHT22;10210;52.284;9.892;2023-03-01T17:17:16;9.10;99.90
20102;DHT22;10210;52.284;9.892;2023-03-01T17:19:42;9.10;99.90
20102;DHT22;10210;52.284;9.892;2023-03-01T17:22:09;9.00;99.90
20102;DHT22;10210;52.284;9.892;2023-03-01T17:24:37;8.90;99.90
20102;DHT22;10210;52.284;9.892;2023-03-01T17:27:05;8.80;99.90
20102;DHT22;10210;52.284;9.892;2023-03-01T17:29:32;8.80;99.90
20102;DHT22;10210;52.284;9.892;2023-03-01T17:31:58;8.70;99.90
20102;DHT22;10210;52.284;9.892;2023-03-01T17:34:24;8.60;99.90
20102;DHT22;10210;52.284;9.892;2023-03-01T17:36:50;8.60;99.90
20102;DHT22;10210;52.284;9.892;2023-03-01T17:39:20;8.50;99.90
20102;DHT22;10210;52.284;9.892;2023-03-01T17:41:50;8.40;99.90
20102;DHT22;10210;52.284;9.892;2023-03-01T17:44:16;8.40;99.90
20102;DHT22;10210;52.284;9.892;2023-03-01T17:46:42;8.30;99.90
20102;DHT22;10210;52.284;9.892;2023-03-01T17:49:08;8.30;99.90
20102;DHT22;10210;52.284;9.892;2023-03-01T17:51:33;8.20;99.90